KSLO/SLO METAR and TAF weather

Enter ICAO airport designator
Station Type Date Time Source
KSLO METAR 2021/09/27 07:55 UTC NOAA

KSLO 270755Z AUTO 20007KT 10SM CLR 19/12 A2997 RMK AO2 T01870117


Station Type Date Time Source
KSLO Decoded METAR 2021/09/27 07:55 UTC NOAA

Salem, Salem-Leckrone Airport, IL, United States (KSLO) 38-38-34N 088-57-51W 174M
Sep 27, 2021 - 03:55 AM EDT / 2021.09.27 0755 UTC
Wind: from the SSW (200 degrees) at 8 MPH (7 KT):0
Visibility: 10 mile(s):0
Sky conditions: clear
Temperature: 65.7 F (18.7 C)
Dew Point: 53.1 F (11.7 C)
Relative Humidity: 63%
Pressure (altimeter): 29.97 in. Hg (1014 hPa)
ob: KSLO 270755Z AUTO 20007KT 10SM CLR 19/12 A2997 RMK AO2 T01870117
cycle: 8

Station Type Date Time Source
KSLO TAF UTC NOAA

Error!

Example: see airport list